createdAt,value
2019-05-25T00:00:55.486Z,15.32
2019-05-25T00:03:24.063Z,15.80
2019-05-25T00:05:52.638Z,15.72
2019-05-25T00:08:21.170Z,15.58
2019-05-25T00:10:50.203Z,14.75
2019-05-25T00:13:18.697Z,14.53
2019-05-25T00:15:47.231Z,18.02
2019-05-25T00:18:15.766Z,17.55
2019-05-25T00:20:44.395Z,15.95
2019-05-25T00:23:12.858Z,17.48
2019-05-25T00:25:41.356Z,16.85
2019-05-25T00:28:09.866Z,17.23
2019-05-25T00:30:38.467Z,16.48
2019-05-25T00:33:06.987Z,15.70
2019-05-25T00:35:35.559Z,17.17
2019-05-25T00:38:04.138Z,15.95
2019-05-25T00:40:32.791Z,15.80
2019-05-25T00:43:01.372Z,16.02
2019-05-25T00:45:29.921Z,17.05
2019-05-25T00:47:58.970Z,16.75
2019-05-25T00:50:27.470Z,17.30
2019-05-25T00:52:56.012Z,16.60
2019-05-25T00:55:24.517Z,16.32
2019-05-25T00:57:53.461Z,16.20
2019-05-25T01:00:22.255Z,16.15
2019-05-25T01:02:50.847Z,16.17
2019-05-25T01:05:19.378Z,15.63
2019-05-25T01:07:47.848Z,16.05
2019-05-25T01:10:17.253Z,16.75
2019-05-25T01:12:45.790Z,16.60
2019-05-25T01:15:15.737Z,17.55
2019-05-25T01:17:44.295Z,16.17
2019-05-25T01:20:15.110Z,16.82
2019-05-25T01:22:43.690Z,17.42
2019-05-25T01:25:13.316Z,16.87
2019-05-25T01:27:41.847Z,17.37
2019-05-25T01:30:11.895Z,17.12
2019-05-25T01:32:40.575Z,17.25
2019-05-25T01:35:09.563Z,18.95
2019-05-25T01:37:38.443Z,17.17
2019-05-25T01:40:08.203Z,17.55
2019-05-25T01:42:36.687Z,18.42
2019-05-25T01:45:08.622Z,17.87
2019-05-25T01:47:37.191Z,18.98
2019-05-25T01:50:09.120Z,17.77
2019-05-25T01:52:37.648Z,18.50
2019-05-25T01:55:06.798Z,18.75
2019-05-25T01:57:35.395Z,18.50
2019-05-25T02:00:05.910Z,18.73
2019-05-25T02:02:34.772Z,18.62
2019-05-25T02:05:03.427Z,18.65
2019-05-25T02:07:31.974Z,19.02
2019-05-25T02:10:00.592Z,19.12
2019-05-25T02:12:29.178Z,18.82
2019-05-25T02:14:57.707Z,18.55
2019-05-25T02:17:26.229Z,20.27
2019-05-25T02:19:54.870Z,18.67
2019-05-25T02:22:23.451Z,18.73
2019-05-25T02:24:52.055Z,20.48
2019-05-25T02:27:20.591Z,18.95
2019-05-25T02:29:49.054Z,19.32
2019-05-25T02:32:17.547Z,19.02
2019-05-25T02:34:46.130Z,20.37
2019-05-25T02:37:14.662Z,19.55
2019-05-25T02:39:43.204Z,19.37
2019-05-25T02:42:11.744Z,20.05
2019-05-25T02:44:40.209Z,19.82
2019-05-25T02:47:08.829Z,20.12
2019-05-25T02:49:37.405Z,20.37
2019-05-25T02:52:05.969Z,21.30
2019-05-25T02:54:34.544Z,20.60
2019-05-25T02:57:03.116Z,20.30
2019-05-25T02:59:31.837Z,20.82
2019-05-25T03:02:00.486Z,20.88
2019-05-25T03:04:29.024Z,20.62
2019-05-25T03:06:58.036Z,20.52
2019-05-25T03:09:28.376Z,20.82
2019-05-25T03:11:59.379Z,20.40
2019-05-25T03:14:28.155Z,20.05
2019-05-25T03:16:56.723Z,20.02
2019-05-25T03:19:25.201Z,20.25
2019-05-25T03:21:53.770Z,20.77
2019-05-25T03:24:22.877Z,20.10
2019-05-25T03:26:51.391Z,22.42
2019-05-25T03:29:19.922Z,20.80
2019-05-25T03:31:48.464Z,18.92
2019-05-25T03:34:17.042Z,20.37
2019-05-25T03:36:45.616Z,20.02
2019-05-25T03:39:14.191Z,19.75
2019-05-25T03:41:42.787Z,20.68
2019-05-25T03:44:11.344Z,19.45
2019-05-25T03:46:39.948Z,20.82
2019-05-25T03:49:08.618Z,20.60
2019-05-25T03:51:37.204Z,24.50
2019-05-25T03:54:06.186Z,23.42
2019-05-25T03:56:34.755Z,21.05
2019-05-25T03:59:03.605Z,21.17
2019-05-25T04:01:32.187Z,22.67
2019-05-25T04:04:00.772Z,19.62
2019-05-25T04:06:29.320Z,20.08
2019-05-25T04:08:57.892Z,19.67
2019-05-25T04:11:26.369Z,18.32
2019-05-25T04:13:54.942Z,20.02
2019-05-25T04:16:23.511Z,19.92
2019-05-25T04:18:52.003Z,19.20
2019-05-25T04:21:20.787Z,18.10
2019-05-25T04:23:49.385Z,17.70
2019-05-25T04:26:22.660Z,18.05
2019-05-25T04:28:48.162Z,18.55
2019-05-25T04:31:16.726Z,18.02
2019-05-25T04:33:45.229Z,18.85
2019-05-25T04:36:13.808Z,18.32
2019-05-25T04:38:42.391Z,18.85
2019-05-25T04:41:10.972Z,18.67
2019-05-25T04:43:39.561Z,17.95
2019-05-25T04:46:08.133Z,18.02
2019-05-25T04:48:36.645Z,18.32
2019-05-25T04:51:05.290Z,18.15
2019-05-25T04:53:33.900Z,16.95
2019-05-25T04:56:02.543Z,17.23
2019-05-25T04:58:31.087Z,17.12
2019-05-25T05:00:59.661Z,17.40
2019-05-25T05:03:28.133Z,18.20
2019-05-25T05:05:56.706Z,18.55
2019-05-25T05:08:25.353Z,18.85
2019-05-25T05:10:53.892Z,19.35
2019-05-25T05:13:22.437Z,18.87
2019-05-25T05:15:51.058Z,19.55
2019-05-25T05:18:19.634Z,17.73
2019-05-25T05:20:48.166Z,16.93
2019-05-25T05:23:16.673Z,16.67
2019-05-25T05:25:45.173Z,17.92
2019-05-25T05:28:13.733Z,16.60
2019-05-25T05:30:42.274Z,16.60
2019-05-25T05:33:10.837Z,15.38
2019-05-25T05:35:39.663Z,17.92
2019-05-25T05:38:08.246Z,16.15
2019-05-25T05:40:37.370Z,15.40
2019-05-25T05:43:11.201Z,16.52
2019-05-25T05:45:42.695Z,16.42
2019-05-25T05:48:12.367Z,16.90
2019-05-25T05:50:41.867Z,15.00
2019-05-25T05:53:10.648Z,16.20
2019-05-25T05:55:39.227Z,15.68
2019-05-25T05:58:07.796Z,15.40
2019-05-25T06:00:36.488Z,16.37
2019-05-25T06:03:05.131Z,14.60
2019-05-25T06:05:33.666Z,16.17
2019-05-25T06:08:02.162Z,15.80
2019-05-25T06:10:30.879Z,15.30
2019-05-25T06:12:59.520Z,17.27
2019-05-25T06:15:28.106Z,15.10
2019-05-25T06:17:56.611Z,13.90
2019-05-25T06:20:25.190Z,14.33
2019-05-25T06:22:53.806Z,14.25
2019-05-25T06:25:22.413Z,12.98
2019-05-25T06:27:50.950Z,12.03
2019-05-25T06:30:20.293Z,13.60
2019-05-25T06:32:48.862Z,14.47
2019-05-25T06:35:17.647Z,14.13
2019-05-25T06:37:46.217Z,14.30
2019-05-25T06:40:15.629Z,14.65
2019-05-25T06:42:44.207Z,15.72
2019-05-25T06:45:13.241Z,15.63
2019-05-25T06:47:41.840Z,15.93
2019-05-25T06:50:11.315Z,14.33
2019-05-25T06:52:40.308Z,13.48
2019-05-25T06:55:09.597Z,14.28
2019-05-25T06:57:43.315Z,13.75
2019-05-25T07:00:10.428Z,15.03
2019-05-25T07:02:39.012Z,15.58
2019-05-25T07:05:08.685Z,13.10
2019-05-25T07:07:37.205Z,11.35
2019-05-25T07:10:07.880Z,13.30
2019-05-25T07:12:36.418Z,12.05
2019-05-25T07:15:07.471Z,13.90
2019-05-25T07:17:36.086Z,11.55
2019-05-25T07:20:09.064Z,11.43
2019-05-25T07:22:37.611Z,11.12
2019-05-25T07:25:07.404Z,6.85
2019-05-25T07:27:36.131Z,6.25
2019-05-25T07:30:08.256Z,6.92
2019-05-25T07:32:36.896Z,9.00
2019-05-25T07:35:07.071Z,8.75
2019-05-25T07:37:35.646Z,8.23
2019-05-25T07:40:07.329Z,8.50
2019-05-25T07:42:35.998Z,9.05
2019-05-25T07:45:08.164Z,9.43
2019-05-25T07:47:36.804Z,10.23
2019-05-25T07:50:09.506Z,10.85
2019-05-25T07:52:38.121Z,10.43
2019-05-25T07:55:10.128Z,14.10
2019-05-25T07:57:38.634Z,10.25
2019-05-25T08:00:08.220Z,9.70
2019-05-25T08:02:37.131Z,8.98
2019-05-25T08:05:07.377Z,8.95
2019-05-25T08:07:36.037Z,9.43
2019-05-25T08:10:05.778Z,9.38
2019-05-25T08:12:34.316Z,8.95
2019-05-25T08:15:02.888Z,8.95
2019-05-25T08:17:31.400Z,9.58
2019-05-25T08:19:59.934Z,9.13
2019-05-25T08:22:28.537Z,8.23
2019-05-25T08:24:57.177Z,9.38
2019-05-25T08:27:25.775Z,10.50
2019-05-25T08:29:54.389Z,10.45
2019-05-25T08:32:22.961Z,12.20
2019-05-25T08:34:51.624Z,12.68
2019-05-25T08:37:20.196Z,10.60
2019-05-25T08:39:48.703Z,7.75
2019-05-25T08:42:17.257Z,9.13
2019-05-25T08:44:45.840Z,10.05
2019-05-25T08:47:14.346Z,10.88
2019-05-25T08:49:42.920Z,9.28
2019-05-25T08:52:11.516Z,9.08
2019-05-25T08:54:40.043Z,8.73
2019-05-25T08:57:08.682Z,8.48
2019-05-25T08:59:37.269Z,9.00
2019-05-25T09:02:05.975Z,10.28
2019-05-25T09:04:34.456Z,11.08
2019-05-25T09:07:03.020Z,11.63
2019-05-25T09:09:31.493Z,10.95
2019-05-25T09:12:02.271Z,9.48
2019-05-25T09:14:30.627Z,9.58
2019-05-25T09:16:59.092Z,8.95
2019-05-25T09:19:27.564Z,10.18
2019-05-25T09:22:02.357Z,8.93
2019-05-25T09:24:26.407Z,8.23
2019-05-25T09:26:54.978Z,9.70
2019-05-25T09:29:23.581Z,6.62
2019-05-25T09:31:52.123Z,5.87
2019-05-25T09:34:20.647Z,6.95
2019-05-25T09:36:49.236Z,6.47
2019-05-25T09:39:17.855Z,6.80
2019-05-25T09:41:46.368Z,7.80
2019-05-25T09:44:15.012Z,7.78
2019-05-25T09:46:43.570Z,7.65
2019-05-25T09:49:12.248Z,10.53
2019-05-25T09:51:40.850Z,8.05
2019-05-25T09:54:09.409Z,8.60
2019-05-25T09:56:37.955Z,10.15
2019-05-25T09:59:19.267Z,11.10
2019-05-25T10:01:36.969Z,5.28
2019-05-25T10:04:05.676Z,4.10
2019-05-25T10:06:34.682Z,7.05
2019-05-25T10:09:04.289Z,9.83
2019-05-25T10:11:32.820Z,11.15
2019-05-25T10:14:01.339Z,10.78
2019-05-25T10:16:29.885Z,10.40
2019-05-25T10:18:58.384Z,11.05
2019-05-25T10:21:26.985Z,6.92
2019-05-25T10:23:55.561Z,5.90
2019-05-25T10:26:24.109Z,4.40
2019-05-25T10:28:52.788Z,4.22
2019-05-25T10:31:21.291Z,3.85
2019-05-25T10:33:49.832Z,3.60
2019-05-25T10:36:18.373Z,4.12
2019-05-25T10:38:46.896Z,3.70
2019-05-25T10:41:15.430Z,3.10
2019-05-25T10:43:44.025Z,2.90
2019-05-25T10:46:12.713Z,3.08
2019-05-25T10:48:41.270Z,2.95
2019-05-25T10:51:09.911Z,3.30
2019-05-25T10:53:38.537Z,3.47
2019-05-25T10:56:07.112Z,2.75
2019-05-25T10:58:35.725Z,3.50
2019-05-25T11:01:04.327Z,3.83
2019-05-25T11:03:32.870Z,3.10
2019-05-25T11:06:01.578Z,2.92
2019-05-25T11:08:30.099Z,3.85
2019-05-25T11:10:58.589Z,3.00
2019-05-25T11:13:27.273Z,2.60
2019-05-25T11:15:55.846Z,11.53
2019-05-25T11:18:24.478Z,2.85
2019-05-25T11:20:53.072Z,2.75
2019-05-25T11:23:21.653Z,2.70
2019-05-25T11:25:50.332Z,2.60
2019-05-25T11:28:19.251Z,2.90
2019-05-25T11:30:47.815Z,2.40
2019-05-25T11:33:16.359Z,3.33
2019-05-25T11:35:45.016Z,2.83
2019-05-25T11:38:13.867Z,2.85
2019-05-25T11:40:42.640Z,2.62
2019-05-25T11:43:11.357Z,3.22
2019-05-25T11:45:40.052Z,2.40
2019-05-25T11:48:08.765Z,2.83
2019-05-25T11:50:37.340Z,2.95
2019-05-25T11:53:06.192Z,3.05
2019-05-25T11:55:34.971Z,2.65
2019-05-25T11:58:03.682Z,2.90
2019-05-25T12:00:32.463Z,4.10
2019-05-25T12:03:01.083Z,3.27
2019-05-25T12:05:29.668Z,2.30
2019-05-25T12:07:57.992Z,2.70
2019-05-25T12:10:26.853Z,2.70
2019-05-25T12:12:55.093Z,2.72
2019-05-25T12:15:23.486Z,4.58
2019-05-25T12:17:51.860Z,3.15
2019-05-25T12:20:20.735Z,2.90
2019-05-25T12:22:49.071Z,2.20
2019-05-25T12:25:17.700Z,5.87
2019-05-25T12:27:49.078Z,1.75
2019-05-25T12:30:16.991Z,4.47
2019-05-25T12:32:45.369Z,2.72
2019-05-25T12:35:18.320Z,2.20
2019-05-25T12:37:46.699Z,2.22
2019-05-25T12:40:15.258Z,1.95
2019-05-25T12:42:45.817Z,1.85
2019-05-25T12:45:13.635Z,2.90
2019-05-25T12:47:41.976Z,2.22
2019-05-25T12:50:10.960Z,1.80
2019-05-25T12:52:39.314Z,1.82
2019-05-25T12:55:07.996Z,2.30
2019-05-25T12:57:36.277Z,1.80
2019-05-25T13:00:15.412Z,2.58
2019-05-25T13:02:36.097Z,1.90
2019-05-25T13:05:05.116Z,2.37
2019-05-25T13:07:33.403Z,1.90
2019-05-25T13:10:01.785Z,2.35
2019-05-25T13:12:30.273Z,2.08
2019-05-25T13:14:58.578Z,1.85
2019-05-25T13:17:26.812Z,2.10
2019-05-25T13:19:55.829Z,2.27
2019-05-25T13:22:24.160Z,2.90
2019-05-25T13:24:53.034Z,2.98
2019-05-25T13:27:21.786Z,3.10
2019-05-25T13:29:50.033Z,2.45
2019-05-25T13:32:18.597Z,2.35
2019-05-25T13:34:47.102Z,3.22
2019-05-25T13:37:17.719Z,3.20
2019-05-25T13:39:45.401Z,2.10
2019-05-25T13:42:13.845Z,2.35
2019-05-25T13:44:42.136Z,2.10
2019-05-25T13:47:10.505Z,2.75
2019-05-25T13:49:38.901Z,2.40
2019-05-25T13:52:07.336Z,3.22
2019-05-25T13:54:35.681Z,7.50
2019-05-25T13:57:04.376Z,10.78
2019-05-25T13:59:32.745Z,4.72
2019-05-25T14:02:01.104Z,3.17
2019-05-25T14:04:29.347Z,3.62
2019-05-25T14:06:57.527Z,3.02
2019-05-25T14:09:25.765Z,3.58
2019-05-25T14:11:54.084Z,4.15
2019-05-25T14:14:24.315Z,4.03
2019-05-25T14:16:52.196Z,3.98
2019-05-25T14:19:20.454Z,6.05
2019-05-25T14:21:48.762Z,3.67
2019-05-25T14:24:17.003Z,4.10
2019-05-25T14:26:45.289Z,4.42
2019-05-25T14:29:13.499Z,3.85
2019-05-25T14:31:45.942Z,4.45
2019-05-25T14:34:11.529Z,4.67
2019-05-25T14:36:39.778Z,4.53
2019-05-25T14:39:08.350Z,3.95
2019-05-25T14:41:36.692Z,7.67
2019-05-25T14:44:04.896Z,5.15
2019-05-25T14:46:33.027Z,7.03
2019-05-25T14:49:01.289Z,6.78
2019-05-25T14:51:29.572Z,6.95
2019-05-25T14:53:57.812Z,5.95
2019-05-25T14:56:26.727Z,5.83
2019-05-25T14:58:55.113Z,5.58
2019-05-25T15:01:23.320Z,6.05
2019-05-25T15:03:51.538Z,6.33
2019-05-25T15:06:20.979Z,5.78
2019-05-25T15:08:49.575Z,7.00
2019-05-25T15:11:17.918Z,4.10
2019-05-25T15:13:46.177Z,5.45
2019-05-25T15:16:14.344Z,6.33
2019-05-25T15:18:42.506Z,4.30
2019-05-25T15:21:10.638Z,4.08
2019-05-25T15:23:38.774Z,3.95
2019-05-25T15:26:06.994Z,5.12
2019-05-25T15:28:35.222Z,7.95
2019-05-25T15:31:03.502Z,4.75
2019-05-25T15:33:31.795Z,8.03
2019-05-25T15:36:00.002Z,5.65
2019-05-25T15:38:28.195Z,4.97
2019-05-25T15:40:56.404Z,4.40
2019-05-25T15:43:24.617Z,5.65
2019-05-25T15:45:52.739Z,4.85
2019-05-25T15:48:20.891Z,4.58
2019-05-25T15:50:49.023Z,5.03
2019-05-25T15:53:17.152Z,5.40
2019-05-25T15:55:45.380Z,5.05
2019-05-25T15:58:13.611Z,5.20
2019-05-25T16:00:45.938Z,5.42
2019-05-25T16:03:14.936Z,5.05
2019-05-25T16:05:43.097Z,4.55
2019-05-25T16:08:11.397Z,4.62
2019-05-25T16:10:39.761Z,3.87
2019-05-25T16:13:08.149Z,3.92
2019-05-25T16:15:36.360Z,3.70
2019-05-25T16:18:04.873Z,4.00
2019-05-25T16:20:33.077Z,4.08
2019-05-25T16:23:01.321Z,4.12
2019-05-25T16:25:30.032Z,4.28
2019-05-25T16:27:58.231Z,3.62
2019-05-25T16:30:26.464Z,8.58
2019-05-25T16:33:13.195Z,5.12
2019-05-25T16:35:24.619Z,4.50
2019-05-25T16:37:53.066Z,4.33
2019-05-25T16:40:21.630Z,4.12
2019-05-25T16:42:49.827Z,6.87
2019-05-25T16:45:18.020Z,3.92
2019-05-25T16:47:46.228Z,4.22
2019-05-25T16:50:15.198Z,7.90
2019-05-25T16:52:43.499Z,7.55
2019-05-25T16:55:12.104Z,11.80
2019-05-25T16:57:40.356Z,11.05
2019-05-25T17:00:09.200Z,10.10
2019-05-25T17:02:37.598Z,9.25
2019-05-25T17:05:07.161Z,8.25
2019-05-25T17:07:35.337Z,7.10
2019-05-25T17:10:04.544Z,5.95
2019-05-25T17:12:32.775Z,5.30
2019-05-25T17:15:01.004Z,5.42
2019-05-25T17:17:29.284Z,5.10
2019-05-25T17:19:57.586Z,4.80
2019-05-25T17:22:25.816Z,4.65
2019-05-25T17:24:54.127Z,5.03
2019-05-25T17:27:22.610Z,5.00
2019-05-25T17:29:50.745Z,5.05
2019-05-25T17:32:19.226Z,4.70
2019-05-25T17:34:47.388Z,5.00
2019-05-25T17:37:17.065Z,4.60
2019-05-25T17:39:45.325Z,5.65
2019-05-25T17:42:13.533Z,5.60
2019-05-25T17:44:41.703Z,5.35
2019-05-25T17:47:09.945Z,8.43
2019-05-25T17:49:38.089Z,6.12
2019-05-25T17:52:06.351Z,5.65
2019-05-25T17:54:34.628Z,6.87
2019-05-25T17:57:03.288Z,7.00
2019-05-25T17:59:31.481Z,7.72
2019-05-25T18:01:59.681Z,8.75
2019-05-25T18:04:28.204Z,8.28
2019-05-25T18:06:56.335Z,8.05
2019-05-25T18:09:24.545Z,7.85
2019-05-25T18:11:52.739Z,8.18
2019-05-25T18:14:21.136Z,8.13
2019-05-25T18:16:49.303Z,7.20
2019-05-25T18:19:17.433Z,7.95
2019-05-25T18:21:45.601Z,9.70
2019-05-25T18:24:13.831Z,9.70
2019-05-25T18:26:41.992Z,7.35
2019-05-25T18:29:10.214Z,7.40
2019-05-25T18:31:38.483Z,7.00
2019-05-25T18:34:21.264Z,7.20
2019-05-25T18:36:36.606Z,6.53
2019-05-25T18:39:06.982Z,7.25
2019-05-25T18:41:35.170Z,7.50
2019-05-25T18:44:03.367Z,7.15
2019-05-25T18:46:31.537Z,6.95
2019-05-25T18:48:59.782Z,8.93
2019-05-25T18:51:28.006Z,9.45
2019-05-25T18:53:56.287Z,8.55
2019-05-25T18:56:24.519Z,7.42
2019-05-25T18:58:52.756Z,8.30
2019-05-25T19:01:21.028Z,8.38
2019-05-25T19:03:49.225Z,8.93
2019-05-25T19:06:17.427Z,8.38
2019-05-25T19:08:45.597Z,7.87
2019-05-25T19:11:13.764Z,8.33
2019-05-25T19:13:41.998Z,8.45
2019-05-25T19:16:10.238Z,8.53
2019-05-25T19:18:38.468Z,8.83
2019-05-25T19:21:06.705Z,8.98
2019-05-25T19:23:35.030Z,9.70
2019-05-25T19:26:03.245Z,10.20
2019-05-25T19:28:31.508Z,10.10
2019-05-25T19:31:02.683Z,11.22
2019-05-25T19:33:30.878Z,10.90
2019-05-25T19:35:59.041Z,11.08
2019-05-25T19:38:27.324Z,11.85
2019-05-25T19:40:55.516Z,11.85
2019-05-25T19:43:23.652Z,11.35
2019-05-25T19:45:51.861Z,11.18
2019-05-25T19:48:20.094Z,11.33
2019-05-25T19:50:48.334Z,10.78
2019-05-25T19:53:16.574Z,11.12
2019-05-25T19:55:44.726Z,11.43
2019-05-25T19:58:13.045Z,11.75
2019-05-25T20:00:41.286Z,10.53
2019-05-25T20:03:09.449Z,10.75
2019-05-25T20:05:37.697Z,10.72
2019-05-25T20:08:05.978Z,11.57
2019-05-25T20:10:34.190Z,11.15
2019-05-25T20:13:02.357Z,11.15
2019-05-25T20:15:30.664Z,11.55
2019-05-25T20:17:58.867Z,11.88
2019-05-25T20:20:27.097Z,12.00
2019-05-25T20:22:55.376Z,16.27
2019-05-25T20:25:23.658Z,12.70
2019-05-25T20:27:51.902Z,12.88
2019-05-25T20:30:20.251Z,11.90
2019-05-25T20:32:48.452Z,13.90
2019-05-25T20:35:31.764Z,15.98
2019-05-25T20:37:46.836Z,14.65
2019-05-25T20:40:15.375Z,15.08
2019-05-25T20:42:44.022Z,14.58
2019-05-25T20:45:12.296Z,14.43
2019-05-25T20:47:40.503Z,14.55
2019-05-25T20:50:09.021Z,14.95
2019-05-25T20:52:37.519Z,14.87
2019-05-25T20:55:06.413Z,15.72
2019-05-25T20:57:34.668Z,15.58
2019-05-25T21:00:03.260Z,15.75
2019-05-25T21:02:31.397Z,25.95
2019-05-25T21:04:59.529Z,16.70
2019-05-25T21:07:27.730Z,16.73
2019-05-25T21:09:55.924Z,16.25
2019-05-25T21:12:24.091Z,16.95
2019-05-25T21:14:52.367Z,17.02
2019-05-25T21:17:20.573Z,16.00
2019-05-25T21:19:48.762Z,17.42
2019-05-25T21:22:16.972Z,15.83
2019-05-25T21:24:45.196Z,15.88
2019-05-25T21:27:13.400Z,16.35
2019-05-25T21:29:41.681Z,15.70
2019-05-25T21:32:09.894Z,16.25
2019-05-25T21:34:38.116Z,16.73
2019-05-25T21:37:06.358Z,14.80
2019-05-25T21:39:34.495Z,25.02
2019-05-25T21:42:02.653Z,18.20
2019-05-25T21:44:30.927Z,16.82
2019-05-25T21:46:59.170Z,16.25
2019-05-25T21:49:27.374Z,17.37
2019-05-25T21:51:55.535Z,17.30
2019-05-25T21:54:23.739Z,16.20
2019-05-25T21:56:51.954Z,16.10
2019-05-25T21:59:20.185Z,16.90
2019-05-25T22:01:48.391Z,17.27
2019-05-25T22:04:16.630Z,17.45
2019-05-25T22:06:44.900Z,17.27
2019-05-25T22:09:13.111Z,17.07
2019-05-25T22:11:41.238Z,16.80
2019-05-25T22:14:09.418Z,17.20
2019-05-25T22:16:37.666Z,16.75
2019-05-25T22:19:05.864Z,16.93
2019-05-25T22:21:34.015Z,14.93
2019-05-25T22:24:02.152Z,15.88
2019-05-25T22:26:30.357Z,16.95
2019-05-25T22:28:58.519Z,16.45
2019-05-25T22:31:26.689Z,16.57
2019-05-25T22:33:54.927Z,15.93
2019-05-25T22:36:38.848Z,15.95
2019-05-25T22:38:53.048Z,17.35
2019-05-25T22:41:21.189Z,18.70
2019-05-25T22:43:49.458Z,16.62
2019-05-25T22:46:17.684Z,16.65
2019-05-25T22:48:45.903Z,15.98
2019-05-25T22:51:14.178Z,15.55
2019-05-25T22:53:42.387Z,14.43
2019-05-25T22:56:10.692Z,14.73
2019-05-25T22:58:39.450Z,14.60
2019-05-25T23:01:07.760Z,14.53
2019-05-25T23:03:35.896Z,14.03
2019-05-25T23:06:04.172Z,13.72
2019-05-25T23:08:32.414Z,14.23
2019-05-25T23:11:00.666Z,14.55
2019-05-25T23:13:28.892Z,12.98
2019-05-25T23:15:57.025Z,13.08
2019-05-25T23:18:25.202Z,12.53
2019-05-25T23:20:53.446Z,13.93
2019-05-25T23:23:21.647Z,13.65
2019-05-25T23:25:49.821Z,13.58
2019-05-25T23:28:18.037Z,14.30
2019-05-25T23:30:46.275Z,13.32
2019-05-25T23:33:14.519Z,13.93
2019-05-25T23:35:42.753Z,12.88
2019-05-25T23:38:10.933Z,13.60
2019-05-25T23:40:39.161Z,13.08
2019-05-25T23:43:07.359Z,14.30
2019-05-25T23:45:35.530Z,12.98
2019-05-25T23:48:03.739Z,12.75
2019-05-25T23:50:31.952Z,13.65
2019-05-25T23:53:00.188Z,14.33
2019-05-25T23:55:28.435Z,11.70
2019-05-25T23:57:57.140Z,14.47
